Latest Coastal Weather Observations for Maroochydore

IDQ60701

Issued at 10:05 pm EST Friday 1 August 2014 (issued every 10 minutes, with the page automatically refreshed every 10 minutes)

About coastal observations | Map of coastal stations | Coastal observations for QLD | Marine services | Other Formats
Station Details ID: 040861 Name: SUNSHINE COAST AIRPORT Lat: -26.60 Lon: 153.09 Height: 3.3 m
Data from the previous 72 hours. | See also: Recent months at Maroochydore
Date/Time
EST
Temp

°C
Wind Pressure Rain
since 9am
mm
Weather Cloud Vis
km
Sea
Height
m
Swell
Dir
 
Speed
knots
Gust
knots
hPa Trend Height
m
Period
s
Dir
01/10:00pm 17.7 WNW 5 7 1015.3 - 0.0 - Cloudy 10 - - - -
01/09:30pm 18.7 NNW 9 12 1014.9 - 0.0 - Cloudy 10 - - - -
01/09:00pm 18.9 NNW 10 14 1014.8 - 0.0 - Mostly cloudy 10 - - - -
01/08:30pm 19.1 NNW 10 15 1014.8 - 0.0 - Partly cloudy 10 - - - -
01/08:00pm 19.0 NNW 9 12 1014.6 - 0.0 - - 10 - - - -
01/07:30pm 19.3 NNW 9 12 1014.2 - 0.0 - - 10 - - - -
01/07:00pm 21.1 NNW 12 18 1013.7 - 0.0 - - 10 - - - -
01/06:30pm 21.7 N 14 20 1013.3 - 0.0 - - 10 - - - -
01/06:00pm 21.1 N 11 14 1013.0 - 0.0 - - 10 - - - -
01/05:30pm 20.9 N 10 13 1012.7 - 0.0 - - 10 - - - -
01/05:00pm 21.5 N 12 15 1012.5 - 0.0 - Partly cloudy 10 - - - -
01/04:30pm 22.3 N 13 16 1012.4 - 0.0 - - 10 - - - -
01/04:00pm 23.5 N 12 16 1012.4 - 0.0 - - 10 - - - -
01/03:30pm 27.1 NNW 9 13 1012.2 - 0.0 - Partly cloudy 10 - - - -
01/03:00pm 25.9 N 8 12 1012.3 - 0.0 - Partly cloudy 10 - - - -
01/02:30pm 28.0 NNW 9 17 1012.5 - 0.0 - Partly cloudy 10 - - - -
01/02:00pm 27.7 NW 10 16 1012.9 - 0.0 - - 10 - - - -
01/01:30pm 27.6 NW 11 15 1013.2 - 0.0 - - 10 - - - -
01/01:00pm 27.6 NW 12 19 1013.4 - 0.0 - - 10 - - - -
01/12:30pm 26.5 NW 13 20 1013.8 - 0.0 - - 10 - - - -
01/12:00pm 26.4 NW 12 21 1014.5 - 0.0 - - 10 - - - -
01/11:30am 25.9 NW 11 16 1015.1 - 0.0 - - 10 - - - -
01/11:00am 24.5 NW 12 17 1015.9 - 0.0 - - 10 - - - -
01/10:30am 24.3 NW 11 16 1016.3 - 0.0 - - 10 - - - -
01/10:00am 22.7 NW 12 19 1016.6 - 0.0 - - 10 - - - -
01/09:30am 21.5 NW 14 19 1016.8 - 0.0 - - 10 - - - -
01/09:00am 20.3 NNW 11 14 1017.1 - 0.0 - - 10 - - - -
01/08:30am 19.3 NNW 10 13 1017.1 - 0.0 - - 10 - - - -
01/08:00am 17.7 NNW 10 13 1017.0 - 0.0 - - 10 - - - -
01/07:30am 16.6 NW 8 13 1016.9 - 0.0 - - 10 - - - -
01/07:00am 15.5 NNW 7 9 1016.7 - 0.0 - - 10 - - - -
01/06:30am 14.5 NNW 7 10 1016.8 - 0.0 - - 10 - - - -
01/06:00am 13.1 NW 5 7 1016.8 - 0.0 - - 10 - - - -
01/05:30am 12.3 WNW 5 6 1016.7 - 0.0 - - 10 - - - -
01/05:00am 11.8 NW 5 6 1016.5 - 0.0 - - 10 - - - -
01/04:30am 10.8 NW 4 5 1016.6 - 0.0 - - 10 - - - -
01/04:00am 11.4 W 6 7 1016.5 - 0.0 - - 10 - - - -
01/03:30am 12.0 NW 5 6 1016.4 - 0.0 - - 10 - - - -
01/03:00am 12.4 NW 5 7 1016.7 - 0.0 - - 10 - - - -
01/02:30am 12.6 NW 5 7 1017.0 - 0.0 - Partly cloudy 10 - - - -
01/02:00am 12.1 NW 5 6 1017.3 - 0.0 - Partly cloudy 10 - - - -
01/01:30am 12.8 NW 6 7 1017.6 - 0.0 - Partly cloudy 10 - - - -
01/01:00am 12.8 WNW 7 7 1017.9 - 0.0 - Partly cloudy 10 - - - -
01/12:30am 13.1 WNW 6 7 1018.1 - 0.0 - - 10 - - - -
01/12:00am 14.4 NW 7 8 1018.3 - 0.0 - - 10 - - - -
 
Date/Time
EST
Temp

°C
Wind Pressure Rain
since 9am
mm
Weather Cloud Vis
km
Sea
Height
m
Swell
Dir
 
Speed
knots
Gust
knots
hPa Trend Height
m
Period
s
Dir
31/11:30pm 13.9 NW 6 7 1018.4 - 0.0 - - 10 - - - -
31/11:00pm 13.9 WNW 6 7 1018.3 - 0.0 - - 10 - - - -
31/10:30pm 15.7 NW 6 8 1018.4 - 0.0 - - 10 - - - -
31/10:00pm 15.8 NW 7 8 1018.3 - 0.0 - - 10 - - - -
31/09:30pm 15.3 NW 6 8 1018.4 - 0.0 - - 10 - - - -
31/09:00pm 15.0 WNW 6 7 1018.4 - 0.0 - - 10 - - - -
31/08:30pm 15.9 WNW 6 7 1018.2 - 0.0 - - 10 - - - -
31/08:00pm 17.6 NNW 6 11 1017.9 - 0.0 - - 10 - - - -
31/07:30pm 18.5 N 9 15 1017.5 - 0.0 - - 10 - - - -
31/07:00pm 18.4 N 9 12 1017.3 - 0.0 - - 10 - - - -
31/06:30pm 19.2 N 12 16 1017.1 - 0.0 - - 10 - - - -
31/06:00pm 19.3 N 14 18 1016.9 - 0.0 - - 10 - - - -
31/05:30pm 19.4 N 13 17 1016.7 - 0.0 - - 10 - - - -
31/05:00pm 19.8 N 11 15 1016.6 - 0.0 - - 10 - - - -
31/04:30pm 20.9 N 11 15 1016.3 - 0.0 - - 10 - - - -
31/04:00pm 21.6 N 12 18 1016.1 - 0.0 - - 10 - - - -
31/03:30pm 22.0 NNE 13 16 1016.3 - 0.0 - - 10 - - - -
31/03:00pm 22.3 NNE 15 17 1016.4 - 0.0 - - 10 - - - -
31/02:30pm 22.6 NNE 13 17 1016.6 - 0.0 - - 10 - - - -
31/02:00pm 23.0 NNE 14 17 1017.0 - 0.0 - - 10 - - - -
31/01:30pm 23.1 NNE 13 17 1017.4 - 0.0 - - 10 - - - -
31/01:00pm 22.5 NNE 13 15 1017.9 - 0.0 - - 10 - - - -
31/12:30pm 23.4 NNE 12 15 1018.6 - 0.0 - - 10 - - - -
31/12:00pm 22.6 NE 10 13 1019.4 - 0.0 - - 10 - - - -
31/11:30am 23.2 NE 10 11 1020.0 - 0.0 - - 10 - - - -
31/11:00am 23.8 NNW 10 15 1020.6 - 0.0 - - 10 - - - -
31/10:30am 22.4 NNW 11 15 1021.2 - 0.0 - - 10 - - - -
31/10:00am 22.1 NW 9 14 1021.6 - 0.0 - - 10 - - - -
31/09:30am 20.9 NNW 8 11 1021.8 - 0.0 - - 10 - - - -
31/09:00am 18.7 NW 4 8 1022.0 - 0.0 - - 10 - - - -
31/08:30am 15.4 WNW 4 5 1021.9 - 0.0 - - 10 - - - -
31/08:00am 13.1 W 4 5 1021.6 - 0.0 - - 10 - - - -
31/07:30am 10.2 CALM 0 0 1021.3 - 0.0 - - 10 - - - -
31/07:00am 8.1 CALM 0 0 1021.1 - 0.0 - - 10 - - - -
31/06:30am 7.3 WSW 1 4 1020.8 - 0.0 - - 10 - - - -
31/06:00am 6.7 WSW 3 4 1020.6 - 0.0 - - 10 - - - -
31/05:30am 7.4 CALM 0 0 1020.3 - 0.0 - - 10 - - - -
31/05:00am 7.9 CALM 0 0 1020.1 - 0.0 - - 10 - - - -
31/04:30am 8.1 NW 4 6 1020.1 - 0.0 - - 10 - - - -
31/04:00am 8.5 N 5 6 1020.0 - 0.0 - - 10 - - - -
31/03:30am 8.1 N 5 6 1020.0 - 0.0 - - 10 - - - -
31/03:13am 7.4 N 6 8 1020.1 - 0.0 - - 5 - - - -
31/03:00am 7.4 N 4 5 1020.1 - 0.0 - - 10 - - - -
31/02:30am 8.1 W 4 5 1020.3 - 0.0 - - 10 - - - -
31/02:26am 8.3 W 4 5 1020.3 - 0.0 - - 10 - - - -
31/02:00am 8.4 NNW 4 5 1020.4 - 0.0 - - 6 - - - -
31/01:30am 10.4 WSW 3 4 1020.7 - 0.0 - - 10 - - - -
31/01:00am 9.5 WNW 4 5 1020.7 - 0.0 - - 10 - - - -
31/12:30am 10.8 NW 4 5 1020.9 - 0.0 - - 10 - - - -
31/12:00am 11.4 NNW 5 5 1021.0 - 0.0 - - 10 - - - -
 
Date/Time
EST
Temp

°C
Wind Pressure Rain
since 9am
mm
Weather Cloud Vis
km
Sea
Height
m
Swell
Dir
 
Speed
knots
Gust
knots
hPa Trend Height
m
Period
s
Dir
30/11:30pm 11.3 WNW 5 6 1021.1 - 0.0 - - 10 - - - -
30/11:00pm 12.3 NNW 4 5 1021.2 - 0.0 - - 10 - - - -
30/10:30pm 12.3 NNW 4 5 1021.2 - 0.0 - - 10 - - - -
30/10:00pm 13.1 NW 5 7 1021.2 - 0.0 - - 10 - - - -
30/09:30pm 13.4 WNW 5 6 1021.2 - 0.0 - - 10 - - - -
30/09:00pm 14.1 NNW 6 7 1021.2 - 0.0 - - 10 - - - -
30/08:30pm 14.0 N 7 8 1021.1 - 0.0 - - 10 - - - -
30/08:00pm 14.4 NW 5 7 1021.0 - 0.0 - - 10 - - - -
30/07:30pm 15.9 NNW 5 6 1020.6 - 0.0 - - 10 - - - -
30/07:00pm 16.5 N 7 9 1020.2 - 0.0 - - 10 - - - -
30/06:30pm 17.4 N 5 7 1019.9 - 0.0 - - 10 - - - -
30/06:00pm 18.2 N 8 10 1019.6 - 0.0 - - 10 - - - -
30/05:30pm 19.0 N 10 14 1019.3 - 0.0 - - 10 - - - -
30/05:00pm 19.8 N 11 13 1019.0 - 0.0 - - 10 - - - -
30/04:30pm 20.7 N 11 15 1018.9 - 0.0 - - 10 - - - -
30/04:00pm 21.3 N 12 17 1018.7 - 0.0 - - 10 - - - -
30/03:30pm 22.0 N 14 19 1018.4 - 0.0 - - 10 - - - -
30/03:00pm 22.5 NNE 14 18 1018.3 - 0.0 - - 10 - - - -
30/02:30pm 23.0 NNE 14 17 1018.5 - 0.0 - - 10 - - - -
30/02:00pm 23.6 NNE 14 18 1018.8 - 0.0 - - 10 - - - -
30/01:30pm 23.8 NNE 13 22 1019.2 - 0.0 - - 10 - - - -
30/01:00pm 25.4 NNW 7 12 1019.8 - 0.0 - - 10 - - - -
30/12:30pm 25.7 WNW 7 11 1020.3 - 0.0 - - 10 - - - -
30/12:00pm 25.2 N 8 12 1020.9 - 0.0 - - 10 - - - -
30/11:30am 25.0 NW 6 10 1021.6 - 0.0 - - 10 - - - -
30/11:00am 23.7 NW 8 12 1022.1 - 0.0 - - 10 - - - -
30/10:30am 23.0 NNW 9 11 1022.6 - 0.0 - - 10 - - - -
30/10:00am 22.0 NNW 9 11 1022.8 - 0.0 - - 10 - - - -
30/09:30am 19.9 NNW 6 9 1023.3 - 0.0 - - 10 - - - -
30/09:00am 17.8 WNW 5 7 1023.4 - 0.2 - - 10 - - - -
30/08:30am 14.9 WNW 5 7 1023.3 - 0.2 - - 10 - - - -
30/08:00am 12.8 WNW 5 6 1023.2 - 0.2 - - 10 - - - -
30/07:30am 10.9 W 5 7 1023.1 - 0.2 - - 10 - - - -
30/07:00am 9.2 WNW 6 7 1022.8 - 0.2 - - 10 - - - -
30/06:30am 8.2 WNW 5 7 1022.7 - 0.2 - - 10 - - - -
30/06:00am 8.4 NNW 4 5 1022.4 - 0.2 - - 10 - - - -
30/05:30am 10.5 NW 7 8 1022.1 - 0.2 - - 10 - - - -
30/05:00am 9.5 WSW 6 8 1022.0 - 0.2 - - 10 - - - -
30/04:51am 8.6 W 7 7 1021.6 - 0.2 - - 10 - - - -
30/04:30am 8.1 WNW 4 6 1021.4 - 0.2 - - 0.6 - - - -
30/04:00am 9.2 W 3 4 1021.4 - 0.2 - - 2 - - - -
30/03:39am 8.4 WNW 5 6 1021.4 - 0.2 - - 6 - - - -
30/03:30am 8.4 W 6 7 1021.4 - 0.2 - - 10 - - - -
30/03:23am 8.0 W 5 6 1021.4 - 0.2 - - 10 - - - -
30/03:03am 8.0 WNW 1 4 1021.4 - 0.2 - - 4 - - - -
30/03:01am 8.0 CALM 0 3 1021.4 - 0.2 - - 10 - - - -
30/03:00am 8.0 CALM 0 0 1021.4 - 0.2 - - 10 - - - -
30/02:41am 8.2 CALM 0 3 1021.4 - 0.2 - - 5 - - - -
30/02:30am 8.7 WNW 1 4 1021.5 - 0.2 - - 10 - - - -
30/02:28am 8.6 WNW 2 4 1021.5 - 0.2 - - 10 - - - -
30/02:00am 7.4 WNW 4 5 1021.4 - 0.2 - - 1 - - - -
30/01:56am 7.6 WNW 4 4 1021.4 - 0.2 - - 6 - - - -
30/01:30am 9.5 WNW 2 4 1021.5 - 0.2 - - 10 - - - -
30/01:01am 9.6 CALM 0 0 1021.7 - 0.2 - - 10 - - - -
30/01:00am 9.7 CALM 0 0 1021.7 - 0.2 - - 10 - - - -
30/12:46am 9.7 CALM 0 0 1021.8 - 0.2 - - 6 - - - -
30/12:30am 10.2 CALM 0 0 1021.8 - 0.2 - - 10 - - - -
30/12:28am 10.1 CALM 0 0 1021.8 - 0.2 - - 9 - - - -
30/12:00am 10.5 WNW 3 4 1021.8 - 0.2 - - 5 - - - -
 
Date/Time
EST
Temp

°C
Wind Pressure Rain
since 9am
mm
Weather Cloud Vis
km
Sea
Height
m
Swell
Dir
 
Speed
knots
Gust
knots
hPa Trend Height
m
Period
s
Dir
29/11:44pm 10.6 WNW 3 5 1021.8 - 0.2 - - 6 - - - -
29/11:30pm 11.2 CALM 0 0 1021.8 - 0.2 - - 10 - - - -
29/11:00pm 11.1 W 5 6 1021.8 - 0.2 - - 10 - - - -
29/10:30pm 11.2 WNW 6 7 1021.7 - 0.2 - - 10 - - - -

Other Formats:

Comma delimited format used in spreadsheet applications
http://www.bom.gov.au/fwo/IDQ60701/IDQ60701.94569.axf

JavaScript Object Notation format (JSON) in row-major order
http://www.bom.gov.au/fwo/IDQ60701/IDQ60701.94569.json